createdAt,value
2022-11-16T15:14:54.819Z,94746.19
2022-11-16T15:16:13.458Z,94750.97
2022-11-16T15:17:18.696Z,94741.59
2022-11-16T15:18:24.773Z,94747.13
2022-11-16T15:19:29.969Z,94746.47
2022-11-16T15:20:36.640Z,94748.66
2022-11-16T15:21:49.782Z,94745.78
2022-11-16T15:22:56.112Z,94746.41
2022-11-16T15:24:29.805Z,94752.94
2022-11-16T15:25:30.934Z,94747.19
2022-11-16T15:26:35.697Z,94741.53
2022-11-16T15:27:40.432Z,94750.56
2022-11-16T15:28:49.875Z,94746.91
2022-11-16T15:29:57.644Z,94745.66
2022-11-16T15:31:04.711Z,94746.09
2022-11-16T15:32:07.628Z,94748.31
2022-11-16T15:33:17.401Z,94752.81
2022-11-16T15:34:20.524Z,94748.75
2022-11-16T15:35:27.888Z,94741.16
2022-11-16T15:36:32.733Z,94743.28
2022-11-16T15:37:37.581Z,94747.69
2022-11-16T15:38:42.323Z,94751.94
2022-11-16T15:39:45.248Z,94762.22
2022-11-16T15:40:52.505Z,94753.44
2022-11-16T15:42:00.399Z,94762.75
2022-11-16T15:43:09.459Z,94762.66
2022-11-16T15:44:15.792Z,94761.91
2022-11-16T15:45:26.715Z,94750.78
2022-11-16T15:46:36.018Z,94755.84
2022-11-16T15:47:38.575Z,94752.00
2022-11-16T15:48:44.576Z,94758.63
2022-11-16T15:49:49.820Z,94749.91
2022-11-16T15:51:04.217Z,94756.53
2022-11-16T15:52:10.752Z,94757.22
2022-11-16T15:53:34.809Z,94757.91
2022-11-16T15:54:52.007Z,94761.94
2022-11-16T15:55:56.810Z,94764.91
2022-11-16T15:57:08.933Z,94752.41
2022-11-16T15:58:25.683Z,94759.59
2022-11-16T15:59:34.339Z,94767.44
2022-11-16T16:00:39.549Z,94758.31
2022-11-16T16:01:46.058Z,94760.28
2022-11-16T16:02:48.200Z,94765.44
2022-11-16T16:04:00.858Z,94751.16
2022-11-16T16:05:03.029Z,94753.19
2022-11-16T16:06:08.694Z,94757.53
2022-11-16T16:07:13.966Z,94747.41
2022-11-16T16:08:33.994Z,94752.66
2022-11-16T16:09:38.810Z,94751.00
2022-11-16T16:10:43.460Z,94752.78
2022-11-16T16:11:48.251Z,94756.19
2022-11-16T16:12:52.291Z,94748.22
2022-11-16T16:14:01.677Z,94756.72
2022-11-16T16:15:22.681Z,94761.78
2022-11-16T16:16:36.163Z,94765.19
2022-11-16T16:17:40.838Z,94753.94
2022-11-16T16:18:45.260Z,94751.16
2022-11-16T16:19:57.005Z,94753.63
2022-11-16T16:20:59.127Z,94746.00
2022-11-16T16:22:04.248Z,94749.31
2022-11-16T16:23:11.314Z,94751.91
2022-11-16T16:24:35.841Z,94752.81
2022-11-16T16:25:46.046Z,94747.84
2022-11-16T16:26:52.082Z,94747.84
2022-11-16T16:27:57.244Z,94748.59
2022-11-16T16:29:01.866Z,94752.81
2022-11-16T16:30:06.662Z,94748.66
2022-11-16T16:31:12.252Z,94744.53
2022-11-16T16:32:27.630Z,94744.53
2022-11-16T16:33:30.589Z,94736.69
2022-11-16T16:34:37.881Z,94735.88
2022-11-16T16:35:45.938Z,94742.88
2022-11-16T16:36:50.685Z,94731.72
2022-11-16T16:37:59.642Z,94737.72
